Time;durP1;ratioP1;P1;durP2;ratioP2;P2;SDS_P1;SDS_P2;PMS_P1;PMS_P2;Temp;Humidity;BMP_temperature;BMP_pressure;BME280_temperature;BME280_humidity;BME280_pressure;Samples;Min_cycle;Max_cycle;Signal;HPM_P1;HPM_P2
2023/08/29 00:00:31;;;;;;;13.80;12.40;;;13.50;99.90;;;;;;4868720;29;20187;-82
2023/08/29 00:02:57;;;;;;;12.87;11.50;;;13.40;99.90;;;;;;4868287;29;20552;-82
2023/08/29 00:05:22;;;;;;;13.33;12.13;;;13.40;99.90;;;;;;4868204;29;20196;-82
2023/08/29 00:07:48;;;;;;;13.03;11.80;;;13.40;99.90;;;;;;4867097;29;20623;-82
2023/08/29 00:10:13;;;;;;;16.23;12.50;;;13.30;99.90;;;;;;4867944;29;20293;-82
2023/08/29 00:12:42;;;;;;;15.50;13.50;;;13.30;99.90;;;;;;4867757;29;20208;-82
2023/08/29 00:15:09;;;;;;;14.10;12.77;;;13.20;99.90;;;;;;4868022;29;20188;-82
2023/08/29 00:17:35;;;;;;;14.60;13.23;;;13.20;99.90;;;;;;4868236;29;20432;-82
2023/08/29 00:20:02;;;;;;;15.90;13.30;;;13.10;99.90;;;;;;4868066;29;20425;-82
2023/08/29 00:22:28;;;;;;;15.03;13.43;;;13.10;99.90;;;;;;4867945;29;20200;-82
2023/08/29 00:24:53;;;;;;;16.00;14.10;;;13.00;99.90;;;;;;4867794;29;20433;-82
2023/08/29 00:27:19;;;;;;;15.50;13.93;;;13.00;99.90;;;;;;4867696;29;20279;-82
2023/08/29 00:29:45;;;;;;;16.43;14.77;;;13.00;99.90;;;;;;4868193;29;20184;-81
2023/08/29 00:32:11;;;;;;;19.23;15.10;;;13.00;99.90;;;;;;4867909;29;20420;-82
2023/08/29 00:34:37;;;;;;;15.47;13.63;;;13.10;99.90;;;;;;4867946;29;20268;-82
2023/08/29 00:37:03;;;;;;;17.33;15.50;;;13.00;99.90;;;;;;4868310;29;20198;-81
2023/08/29 00:39:28;;;;;;;21.13;15.20;;;13.00;99.90;;;;;;4867620;29;20421;-82
2023/08/29 00:41:54;;;;;;;18.90;16.93;;;13.00;99.90;;;;;;4867006;29;20908;-82
2023/08/29 00:44:21;;;;;;;18.83;15.60;;;13.00;99.90;;;;;;4863968;29;20188;-82
2023/08/29 00:46:46;;;;;;;18.50;14.80;;;13.10;99.90;;;;;;4864396;29;20475;-82
2023/08/29 00:49:15;;;;;;;17.23;15.57;;;13.10;99.90;;;;;;4864652;29;20425;-82
2023/08/29 00:51:41;;;;;;;17.37;15.67;;;13.10;99.90;;;;;;4864839;29;20216;-82
2023/08/29 00:54:08;;;;;;;19.60;17.70;;;13.20;99.90;;;;;;4864683;29;20809;-82
2023/08/29 00:56:35;;;;;;;16.57;14.97;;;13.20;99.90;;;;;;4864427;29;20421;-82
2023/08/29 00:59:01;;;;;;;17.40;15.73;;;13.20;99.90;;;;;;4864512;29;20421;-82
2023/08/29 01:01:27;;;;;;;20.33;17.87;;;13.30;99.90;;;;;;4864248;29;20539;-82
2023/08/29 01:03:53;;;;;;;16.60;15.00;;;13.30;99.90;;;;;;4864273;29;20508;-82
2023/08/29 01:06:19;;;;;;;16.03;14.63;;;13.30;99.90;;;;;;4864370;29;20424;-82
2023/08/29 01:08:45;;;;;;;18.10;15.37;;;13.30;99.90;;;;;;4864501;29;20420;-82
2023/08/29 01:11:22;;;;;;;15.53;14.10;;;13.30;99.90;;;;;;4863970;29;20417;-83
2023/08/29 01:13:57;;;;;;;17.87;14.80;;;13.30;99.90;;;;;;4864438;29;20192;-82
2023/08/29 01:16:30;;;;;;;16.93;15.27;;;13.20;99.90;;;;;;4863931;29;20417;-82
2023/08/29 01:18:56;;;;;;;16.57;14.77;;;13.30;99.90;;;;;;4864119;29;20429;-82
2023/08/29 01:21:35;;;;;;;18.20;16.30;;;13.30;99.90;;;;;;4864144;29;20894;-82
2023/08/29 01:24:35;;;;;;;17.70;16.00;;;13.30;99.90;;;;;;4864191;29;20608;-81
2023/08/29 01:27:02;;;;;;;18.27;16.23;;;13.30;99.90;;;;;;4824638;29;20481;-82
2023/08/29 01:29:29;;;;;;;18.67;16.70;;;13.30;99.90;;;;;;4863599;29;20460;-82
2023/08/29 01:31:55;;;;;;;19.57;17.47;;;13.40;99.90;;;;;;4862803;29;20429;-82
2023/08/29 01:34:21;;;;;;;17.70;15.50;;;13.40;99.90;;;;;;4863039;29;20435;-82
2023/08/29 01:36:47;;;;;;;20.47;17.90;;;13.30;99.90;;;;;;4864141;29;20429;-81
2023/08/29 01:39:13;;;;;;;17.27;15.43;;;13.40;99.90;;;;;;4863719;29;20196;-83
2023/08/29 01:41:38;;;;;;;18.27;16.27;;;13.40;99.90;;;;;;4863714;29;20478;-82
2023/08/29 01:44:05;;;;;;;19.47;14.90;;;13.50;99.90;;;;;;4863784;29;20195;-82
2023/08/29 01:46:31;;;;;;;18.90;16.87;;;13.40;99.90;;;;;;4863145;29;20587;-82
2023/08/29 01:48:59;;;;;;;17.80;16.00;;;13.40;99.90;;;;;;4863882;29;20417;-82
2023/08/29 01:51:25;;;;;;;18.00;16.13;;;13.40;99.90;;;;;;4863525;29;20207;-82
2023/08/29 01:53:51;;;;;;;18.20;16.33;;;13.40;99.90;;;;;;4863290;29;20413;-82
2023/08/29 01:56:19;;;;;;;17.13;15.43;;;13.40;99.90;;;;;;4863572;29;20959;-82
2023/08/29 01:58:47;;;;;;;18.83;17.13;;;13.40;99.90;;;;;;4863604;29;20934;-83
2023/08/29 02:01:14;;;;;;;17.40;15.53;;;13.40;99.90;;;;;;4863173;29;20413;-86
2023/08/29 02:03:39;;;;;;;21.10;17.40;;;13.40;99.90;;;;;;4863449;29;20520;-82
2023/08/29 02:06:05;;;;;;;19.73;17.30;;;13.40;99.90;;;;;;4863573;29;20460;-82
2023/08/29 02:08:32;;;;;;;17.77;15.90;;;13.40;99.90;;;;;;4863125;29;20241;-82
2023/08/29 02:10:57;;;;;;;18.87;16.87;;;13.50;99.90;;;;;;4863192;29;20921;-82
2023/08/29 02:13:23;;;;;;;19.03;17.03;;;13.40;99.90;;;;;;4862757;29;20482;-82
2023/08/29 02:15:48;;;;;;;18.93;17.20;;;13.40;99.90;;;;;;4863273;29;20184;-82
2023/08/29 02:18:14;;;;;;;19.90;17.70;;;13.40;99.90;;;;;;4862952;29;20641;-86
2023/08/29 02:20:40;;;;;;;21.47;19.30;;;13.40;99.90;;;;;;4863103;29;20189;-82
2023/08/29 02:23:06;;;;;;;22.20;19.93;;;13.50;99.90;;;;;;4863081;29;20195;-82
2023/08/29 02:25:31;;;;;;;21.43;19.13;;;13.50;99.90;;;;;;4862797;29;20780;-82
2023/08/29 02:27:58;;;;;;;29.97;19.23;;;13.50;99.90;;;;;;4862582;29;20216;-82
2023/08/29 02:30:23;;;;;;;20.60;18.50;;;13.60;99.90;;;;;;4862719;29;20184;-82
2023/08/29 02:32:49;;;;;;;19.83;17.83;;;13.50;99.90;;;;;;4862833;29;20441;-82
2023/08/29 02:35:15;;;;;;;19.50;17.63;;;13.40;99.90;;;;;;4862441;29;20704;-82
2023/08/29 02:37:40;;;;;;;21.20;19.00;;;13.40;99.90;;;;;;4863170;29;20280;-82
2023/08/29 02:40:10;;;;;;;19.87;17.87;;;13.40;99.90;;;;;;4862964;29;20258;-82
2023/08/29 02:42:36;;;;;;;19.77;17.67;;;13.50;99.90;;;;;;4862319;29;20188;-82
2023/08/29 02:45:03;;;;;;;23.53;18.87;;;13.50;99.90;;;;;;4862719;29;20801;-82
2023/08/29 02:47:28;;;;;;;22.20;19.90;;;13.60;99.90;;;;;;4862242;29;20583;-82
2023/08/29 02:49:54;;;;;;;22.37;19.97;;;13.60;99.90;;;;;;4862749;29;20465;-82
2023/08/29 02:52:20;;;;;;;22.47;20.10;;;13.50;99.90;;;;;;4862177;29;20252;-82
2023/08/29 02:54:45;;;;;;;22.93;20.40;;;13.50;99.90;;;;;;4862576;29;20457;-82
2023/08/29 02:57:11;;;;;;;22.03;19.77;;;13.50;99.90;;;;;;4862236;29;20196;-82
2023/08/29 02:59:36;;;;;;;22.40;18.77;;;13.50;99.90;;;;;;4862228;29;20199;-82
2023/08/29 03:02:03;;;;;;;21.67;19.37;;;13.60;99.90;;;;;;4862529;29;20180;-82
2023/08/29 03:04:30;;;;;;;22.07;19.77;;;13.50;99.90;;;;;;4861039;29;20316;-82
2023/08/29 03:06:55;;;;;;;20.97;18.77;;;13.60;99.90;;;;;;4861786;29;20461;-82
2023/08/29 03:09:21;;;;;;;23.27;19.53;;;13.60;99.90;;;;;;4861809;29;20478;-83
2023/08/29 03:11:47;;;;;;;24.47;19.00;;;13.60;99.90;;;;;;4862603;29;20184;-82
2023/08/29 03:14:13;;;;;;;22.57;20.23;;;13.60;99.90;;;;;;4862404;29;20219;-82
2023/08/29 03:16:38;;;;;;;29.30;19.50;;;13.70;99.90;;;;;;4861757;29;20188;-82
2023/08/29 03:19:04;;;;;;;27.93;18.60;;;13.70;99.90;;;;;;4862097;29;20960;-82
2023/08/29 03:21:30;;;;;;;19.90;17.43;;;13.60;99.90;;;;;;4861799;29;20547;-82
2023/08/29 03:23:55;;;;;;;23.00;19.17;;;13.50;99.90;;;;;;4862401;29;20188;-82
2023/08/29 03:26:21;;;;;;;19.07;16.73;;;13.50;99.90;;;;;;4861771;29;20417;-83
2023/08/29 03:28:47;;;;;;;22.17;19.97;;;13.60;99.90;;;;;;4862284;29;20187;-82
2023/08/29 03:31:15;;;;;;;29.03;22.07;;;13.60;99.90;;;;;;4862498;29;20241;-82
2023/08/29 03:33:43;;;;;;;26.60;22.60;;;13.60;99.90;;;;;;4861950;29;20409;-82
2023/08/29 03:36:09;;;;;;;26.17;22.87;;;13.60;99.90;;;;;;4845554;29;20484;-82
2023/08/29 03:38:36;;;;;;;30.13;22.00;;;13.50;99.90;;;;;;4862021;29;20421;-82
2023/08/29 03:41:06;;;;;;;26.40;23.40;;;13.50;99.90;;;;;;4861251;29;20457;-82
2023/08/29 03:43:33;;;;;;;25.40;22.67;;;13.50;99.90;;;;;;4862271;29;20496;-82
2023/08/29 03:46:03;;;;;;;26.50;23.00;;;13.50;99.90;;;;;;4862000;29;20413;-82
2023/08/29 03:48:30;;;;;;;25.50;22.80;;;13.50;99.90;;;;;;4861340;29;20980;-82
2023/08/29 03:50:56;;;;;;;25.63;22.87;;;13.50;99.90;;;;;;4862044;29;20421;-82
2023/08/29 03:53:24;;;;;;;27.17;24.17;;;13.40;99.90;;;;;;4861875;29;20528;-82
2023/08/29 03:55:50;;;;;;;25.10;22.50;;;13.40;99.90;;;;;;4862276;29;20461;-82
2023/08/29 03:58:16;;;;;;;32.73;25.50;;;13.40;99.90;;;;;;4861840;29;20852;-82
2023/08/29 04:00:42;;;;;;;29.23;24.97;;;13.40;99.90;;;;;;4863686;29;20195;-81
2023/08/29 04:03:08;;;;;;;29.17;26.03;;;13.40;99.90;;;;;;4861645;29;20197;-82
2023/08/29 04:05:39;;;;;;;26.37;23.60;;;13.40;99.90;;;;;;4862761;29;20433;-81
2023/08/29 04:08:06;;;;;;;27.83;24.83;;;13.30;99.90;;;;;;4861794;29;20264;-82
2023/08/29 04:10:38;;;;;;;27.50;24.60;;;13.30;99.90;;;;;;4861737;29;20467;-82
2023/08/29 04:13:04;;;;;;;29.27;23.50;;;13.30;99.90;;;;;;4861998;29;20417;-81
2023/08/29 04:15:31;;;;;;;27.00;24.10;;;13.30;99.90;;;;;;4861906;29;20424;-82
2023/08/29 04:17:56;;;;;;;36.80;26.73;;;13.30;99.90;;;;;;4862832;29;20509;-81
2023/08/29 04:20:22;;;;;;;29.00;24.27;;;13.30;99.90;;;;;;4865240;29;20877;-83
2023/08/29 04:22:48;;;;;;;28.23;25.33;;;13.30;99.90;;;;;;4865555;29;20540;-82
2023/08/29 04:25:14;;;;;;;32.07;26.10;;;13.30;99.90;;;;;;4865126;29;20413;-82
2023/08/29 04:27:41;;;;;;;33.10;27.23;;;13.30;99.90;;;;;;4865527;29;20211;-82
2023/08/29 04:30:07;;;;;;;31.47;27.37;;;13.30;99.90;;;;;;4864891;29;20248;-81
2023/08/29 04:32:37;;;;;;;35.83;27.20;;;13.30;99.90;;;;;;4863526;29;20464;-82
2023/08/29 04:35:05;;;;;;;30.30;25.70;;;13.30;99.90;;;;;;4865336;29;20536;-82
2023/08/29 04:37:34;;;;;;;33.37;28.10;;;13.30;99.90;;;;;;4865057;29;20797;-82
2023/08/29 04:40:00;;;;;;;29.47;24.43;;;13.30;99.90;;;;;;4864952;29;20999;-82
2023/08/29 04:42:26;;;;;;;32.40;25.20;;;13.20;99.90;;;;;;4864694;29;20512;-82
2023/08/29 04:44:53;;;;;;;32.77;26.57;;;13.20;99.90;;;;;;4864910;29;20587;-82
2023/08/29 04:47:19;;;;;;;32.57;27.03;;;13.20;99.90;;;;;;4864735;29;20208;-82
2023/08/29 04:49:45;;;;;;;34.57;27.30;;;13.20;99.90;;;;;;4864711;29;20428;-82
2023/08/29 04:52:11;;;;;;;37.70;28.60;;;13.20;99.90;;;;;;4864811;29;20440;-81
2023/08/29 04:54:36;;;;;;;42.23;31.50;;;13.20;99.90;;;;;;4864359;29;20188;-82
2023/08/29 04:57:04;;;;;;;32.57;27.50;;;13.20;99.90;;;;;;4864667;29;20653;-82
2023/08/29 04:59:29;;;;;;;39.37;29.80;;;13.10;99.90;;;;;;4864391;29;20196;-82
2023/08/29 05:01:55;;;;;;;37.40;30.17;;;13.20;99.90;;;;;;4864489;29;20524;-81
2023/08/29 05:04:20;;;;;;;42.40;30.70;;;13.20;99.90;;;;;;4864429;29;20715;-81
2023/08/29 05:06:46;;;;;;;35.37;27.80;;;13.10;99.90;;;;;;4864445;29;20227;-81
2023/08/29 05:09:12;;;;;;;44.83;32.27;;;13.20;99.90;;;;;;4864596;29;20203;-81
2023/08/29 05:11:37;;;;;;;35.60;29.90;;;13.20;99.90;;;;;;4864442;29;20188;-82
2023/08/29 05:14:03;;;;;;;45.27;33.40;;;13.20;99.90;;;;;;4864525;29;20263;-81
2023/08/29 05:16:29;;;;;;;46.73;34.80;;;13.30;99.90;;;;;;4864195;29;20215;-81
2023/08/29 05:18:54;;;;;;;45.87;33.10;;;13.40;99.90;;;;;;4864476;29;20272;-81
2023/08/29 05:21:20;;;;;;;52.33;35.10;;;13.30;99.90;;;;;;4864437;29;20236;-81
2023/08/29 05:23:45;;;;;;;56.20;38.23;;;13.40;99.90;;;;;;4864210;29;20259;-81
2023/08/29 05:26:11;;;;;;;49.80;36.50;;;13.50;99.90;;;;;;4864448;29;20196;-81
2023/08/29 05:28:36;;;;;;;47.27;35.47;;;13.50;99.90;;;;;;4863631;29;20195;-81
2023/08/29 05:31:02;;;;;;;53.30;37.03;;;13.50;99.90;;;;;;4863968;29;20267;-81
2023/08/29 05:33:27;;;;;;;53.00;38.70;;;13.60;99.90;;;;;;4862412;29;20193;-81
2023/08/29 05:35:53;;;;;;;60.27;40.20;;;13.60;99.90;;;;;;4863802;29;20692;-81
2023/08/29 05:38:20;;;;;;;51.20;36.83;;;13.60;99.90;;;;;;4863127;29;20191;-81
2023/08/29 05:40:51;;;;;;;58.43;40.07;;;13.70;99.90;;;;;;4863628;29;20196;-81
2023/08/29 05:43:18;;;;;;;53.50;40.47;;;13.70;99.90;;;;;;4862607;29;20835;-81
2023/08/29 05:45:43;;;;;;;55.13;37.90;;;13.70;99.90;;;;;;4862680;29;20562;-81
2023/08/29 05:48:09;;;;;;;58.00;39.47;;;13.70;99.90;;;;;;4863592;29;20905;-81
2023/08/29 05:50:34;;;;;;;64.20;43.17;;;13.70;99.90;;;;;;4863911;29;20701;-81
2023/08/29 05:53:00;;;;;;;58.57;40.60;;;13.70;99.90;;;;;;4863904;29;20301;-81
2023/08/29 05:55:26;;;;;;;58.80;40.67;;;13.70;99.90;;;;;;4863778;29;20195;-81
2023/08/29 05:57:51;;;;;;;62.10;41.30;;;13.70;99.90;;;;;;4862249;29;20281;-81
2023/08/29 06:00:19;;;;;;;58.67;40.73;;;13.70;99.90;;;;;;4864056;29;20220;-81
2023/08/29 06:02:44;;;;;;;60.40;40.50;;;13.70;99.90;;;;;;4863753;29;20556;-81
2023/08/29 06:05:10;;;;;;;64.97;42.90;;;13.80;99.90;;;;;;4862516;29;20535;-81
2023/08/29 06:07:38;;;;;;;57.50;39.17;;;13.80;99.90;;;;;;4862359;29;20760;-80
2023/08/29 06:10:05;;;;;;;64.83;42.63;;;13.80;99.90;;;;;;4863567;29;20220;-81
2023/08/29 06:12:31;;;;;;;62.83;42.20;;;13.80;99.90;;;;;;4863481;29;20481;-81
2023/08/29 06:14:56;;;;;;;66.47;43.13;;;13.90;99.90;;;;;;4863505;29;20421;-81
2023/08/29 06:17:22;;;;;;;72.17;46.40;;;13.90;99.90;;;;;;4863319;29;20272;-81
2023/08/29 06:19:48;;;;;;;73.73;47.50;;;13.90;99.90;;;;;;4863554;29;20196;-81
2023/08/29 06:22:13;;;;;;;72.00;44.20;;;13.90;99.90;;;;;;4863138;29;20209;-80
2023/08/29 06:24:39;;;;;;;74.30;47.20;;;13.90;99.90;;;;;;4863176;29;20188;-81
2023/08/29 06:27:04;;;;;;;77.00;46.43;;;13.90;99.90;;;;;;4863501;29;20570;-81
2023/08/29 06:29:31;;;;;;;76.07;44.60;;;14.00;99.90;;;;;;4863127;29;20196;-81
2023/08/29 06:31:56;;;;;;;71.20;44.13;;;13.90;99.90;;;;;;4863185;29;20211;-81
2023/08/29 06:34:23;;;;;;;68.67;45.03;;;14.00;99.90;;;;;;4863161;29;20422;-81
2023/08/29 06:36:49;;;;;;;69.13;43.23;;;14.00;99.90;;;;;;4863133;29;20282;-81
2023/08/29 06:39:15;;;;;;;71.00;46.67;;;14.00;99.90;;;;;;4863004;29;20445;-81
2023/08/29 06:41:41;;;;;;;69.60;44.87;;;14.00;99.90;;;;;;4862235;29;20925;-82
2023/08/29 06:44:07;;;;;;;68.07;44.63;;;14.00;99.90;;;;;;4863029;29;20180;-81
2023/08/29 06:46:33;;;;;;;65.60;43.50;;;14.10;99.90;;;;;;4862550;29;20195;-83
2023/08/29 06:48:59;;;;;;;57.00;39.50;;;14.10;99.90;;;;;;4863753;29;20425;-81
2023/08/29 06:51:25;;;;;;;66.40;43.10;;;14.10;99.90;;;;;;4862344;29;20425;-86
2023/08/29 06:53:50;;;;;;;61.30;41.80;;;14.10;99.90;;;;;;4862218;29;20421;-86
2023/08/29 06:56:16;;;;;;;61.30;41.00;;;14.10;99.90;;;;;;4845780;29;20457;-86
2023/08/29 06:58:41;;;;;;;62.40;42.40;;;14.20;99.90;;;;;;4860798;29;20216;-84
2023/08/29 07:01:07;;;;;;;62.20;41.87;;;14.20;99.90;;;;;;4862183;29;20546;-84
2023/08/29 07:03:33;;;;;;;57.23;39.57;;;14.30;99.90;;;;;;4862348;29;20189;-85
2023/08/29 07:05:59;;;;;;;60.47;40.13;;;14.40;99.90;;;;;;4862650;29;20192;-85
2023/08/29 07:08:24;;;;;;;53.53;38.07;;;14.40;99.90;;;;;;4861413;29;20226;-85
2023/08/29 07:10:50;;;;;;;54.03;39.00;;;14.50;99.90;;;;;;4861022;29;20417;-84
2023/08/29 07:13:16;;;;;;;52.30;38.40;;;14.60;99.90;;;;;;4861865;29;20585;-84
2023/08/29 07:15:42;;;;;;;53.10;38.10;;;14.60;99.90;;;;;;4860567;29;20224;-85
2023/08/29 07:18:07;;;;;;;50.27;38.17;;;14.70;99.90;;;;;;4861156;29;20188;-85
2023/08/29 07:20:33;;;;;;;53.60;38.80;;;14.60;99.90;;;;;;4862075;29;20664;-86
2023/08/29 07:22:59;;;;;;;47.43;35.87;;;14.60;99.90;;;;;;4862076;29;20207;-86
2023/08/29 07:25:44;;;;;;;48.00;35.30;;;14.70;99.90;;;;;;4862333;29;20463;-85
2023/08/29 07:28:13;;;;;;;49.13;37.33;;;14.60;99.90;;;;;;4862133;29;20216;-84
2023/08/29 07:30:44;;;;;;;43.10;34.37;;;14.80;99.90;;;;;;4861844;29;20823;-85
2023/08/29 07:33:13;;;;;;;46.83;36.00;;;14.80;99.90;;;;;;4862105;29;20400;-85
2023/08/29 07:35:40;;;;;;;41.73;32.17;;;14.80;99.90;;;;;;4859954;29;20496;-85
2023/08/29 07:38:05;;;;;;;45.30;36.57;;;14.90;99.90;;;;;;4861960;29;20520;-84
2023/08/29 07:40:33;;;;;;;41.30;32.70;;;14.90;99.90;;;;;;4861568;29;20507;-85
2023/08/29 07:43:03;;;;;;;44.43;32.47;;;15.00;99.90;;;;;;4860954;29;20528;-85
2023/08/29 07:45:29;;;;;;;40.50;32.20;;;15.00;99.90;;;;;;4846190;29;20466;-86
2023/08/29 07:47:55;;;;;;;46.23;32.60;;;14.90;99.90;;;;;;4865414;29;20508;-86
2023/08/29 07:50:21;;;;;;;40.17;30.93;;;15.00;99.90;;;;;;4861003;29;20457;-87
2023/08/29 07:52:46;;;;;;;38.00;30.70;;;15.00;99.90;;;;;;4863177;29;20184;-87
2023/08/29 07:55:12;;;;;;;39.33;29.43;;;15.20;99.90;;;;;;4863870;29;20177;-86
2023/08/29 07:57:38;;;;;;;37.33;30.00;;;15.20;99.90;;;;;;4878601;24;20255;-84
2023/08/29 08:00:06;;;;;;;32.20;27.57;;;15.30;99.90;;;;;;4861584;29;20187;-87
2023/08/29 08:02:38;;;;;;;35.07;28.93;;;15.20;99.90;;;;;;4865329;29;20743;-86
2023/08/29 08:05:07;;;;;;;31.90;25.80;;;15.50;99.90;;;;;;4862772;29;20470;-86
2023/08/29 08:07:32;;;;;;;30.30;27.00;;;15.60;99.90;;;;;;4864690;29;20469;-87
2023/08/29 08:09:58;;;;;;;27.00;23.63;;;15.60;99.90;;;;;;4863261;29;20870;-87
2023/08/29 08:12:24;;;;;;;31.53;24.77;;;15.80;99.90;;;;;;4863745;29;20180;-87
2023/08/29 08:14:52;;;;;;;26.57;23.77;;;15.80;99.90;;;;;;4873150;29;20184;-87
2023/08/29 08:17:18;;;;;;;27.47;24.50;;;15.80;99.90;;;;;;4867698;29;20204;-87
2023/08/29 08:19:44;;;;;;;30.57;26.10;;;15.80;99.90;;;;;;4865233;29;20421;-87
2023/08/29 08:22:10;;;;;;;41.30;34.40;;;15.90;99.90;;;;;;4865172;29;20191;-88
2023/08/29 08:24:38;;;;;;;39.03;31.73;;;16.10;99.90;;;;;;4863827;29;20565;-88
2023/08/29 08:27:05;;;;;;;39.03;28.27;;;16.10;99.90;;;;;;4863710;29;20996;-90
2023/08/29 08:29:31;;;;;;;31.80;27.73;;;16.20;99.90;;;;;;4863486;29;20449;-90
2023/08/29 08:31:58;;;;;;;35.00;28.33;;;16.20;99.90;;;;;;4862973;29;20464;-91
2023/08/29 08:34:23;;;;;;;33.40;27.40;;;16.20;99.90;;;;;;4863501;29;20420;-90
2023/08/29 08:36:49;;;;;;;38.80;29.67;;;16.30;99.90;;;;;;4863623;29;20528;-90
2023/08/29 08:39:15;;;;;;;33.67;27.93;;;16.30;99.90;;;;;;4848127;29;20240;-90
2023/08/29 08:41:42;;;;;;;38.23;31.67;;;16.30;99.90;;;;;;4847662;29;20188;-91
2023/08/29 08:44:09;;;;;;;40.83;31.57;;;16.50;99.90;;;;;;4863247;29;20279;-90
2023/08/29 08:46:36;;;;;;;45.80;35.93;;;16.50;99.90;;;;;;4862957;29;20428;-90
2023/08/29 08:49:06;;;;;;;54.67;43.37;;;16.50;99.90;;;;;;4863036;29;20784;-92
2023/08/29 08:51:33;;;;;;;57.60;43.23;;;16.60;99.90;;;;;;4858028;29;20441;-91
2023/08/29 08:53:59;;;;;;;51.80;41.93;;;16.80;99.90;;;;;;4862608;29;20783;-90
2023/08/29 08:56:27;;;;;;;47.23;37.50;;;16.90;99.90;;;;;;4862354;29;20392;-91
2023/08/29 08:58:54;;;;;;;41.73;34.40;;;17.10;99.90;;;;;;4862197;29;20472;-90
2023/08/29 09:01:19;;;;;;;45.13;36.97;;;17.40;99.90;;;;;;4862412;29;20395;-90
2023/08/29 09:03:45;;;;;;;40.87;34.13;;;17.50;99.90;;;;;;4862509;29;20494;-90
2023/08/29 09:06:14;;;;;;;39.27;33.60;;;17.60;99.90;;;;;;4862360;29;20208;-91
2023/08/29 09:08:40;;;;;;;46.60;38.30;;;17.90;99.90;;;;;;4877548;29;20653;-92
2023/08/29 09:11:06;;;;;;;35.67;31.77;;;18.10;99.90;;;;;;4854082;29;20476;-89
2023/08/29 09:13:32;;;;;;;40.00;30.97;;;18.40;99.90;;;;;;4857093;29;20515;-89
2023/08/29 09:15:59;;;;;;;39.73;32.23;;;18.40;99.90;;;;;;4876610;29;20195;-89
2023/08/29 09:18:28;;;;;;;42.13;33.37;;;18.60;99.90;;;;;;4868003;29;20560;-90
2023/08/29 09:20:53;;;;;;;38.27;32.33;;;18.70;99.90;;;;;;4879382;29;20458;-89
2023/08/29 09:23:22;;;;;;;38.50;33.60;;;18.90;99.90;;;;;;4843920;29;20818;-89
2023/08/29 09:26:00;;;;;;;43.63;35.20;;;19.10;99.90;;;;;;4860491;29;20191;-91
2023/08/29 09:28:27;;;;;;;42.87;35.23;;;18.70;99.90;;;;;;4872107;29;20467;-89
2023/08/29 09:30:53;;;;;;;40.17;33.97;;;18.60;99.90;;;;;;4867665;29;20411;-89
2023/08/29 09:33:23;;;;;;;36.80;33.00;;;19.10;99.90;;;;;;4857471;29;20425;-90
2023/08/29 09:35:51;;;;;;;35.87;32.17;;;19.70;99.90;;;;;;4877050;29;20933;-88
2023/08/29 09:38:20;;;;;;;34.13;30.43;;;19.60;99.90;;;;;;4864856;29;20967;-88
2023/08/29 09:40:51;;;;;;;34.13;30.43;;;20.10;99.90;;;;;;4867897;29;20399;-88
2023/08/29 09:43:17;;;;;;;39.93;33.27;;;20.00;99.90;;;;;;4871442;29;20471;-88
2023/08/29 09:45:50;;;;;;;42.20;34.53;;;19.90;99.90;;;;;;4867925;29;20431;-88
2023/08/29 09:48:16;;;;;;;35.30;31.50;;;20.00;99.90;;;;;;4862269;29;20480;-88
2023/08/29 09:50:43;;;;;;;31.70;28.23;;;20.10;99.90;;;;;;4868415;29;20406;-90
2023/08/29 09:53:08;;;;;;;32.50;28.00;;;20.70;99.90;;;;;;4855765;29;20433;-89
2023/08/29 09:56:15;;;;;;;35.63;29.93;;;21.20;99.90;;;;;;4856726;29;20425;-87
2023/08/29 09:58:41;;;;;;;37.20;33.27;;;20.70;99.90;;;;;;4838217;29;20239;-88
2023/08/29 10:01:09;;;;;;;41.33;37.03;;;20.50;99.90;;;;;;4853525;29;20434;-88
2023/08/29 10:03:35;;;;;;;42.47;37.77;;;20.60;99.90;;;;;;4848369;29;20487;-90
2023/08/29 10:06:05;;;;;;;39.83;35.77;;;21.00;99.90;;;;;;4870315;29;20830;-87
2023/08/29 10:08:41;;;;;;;41.43;37.07;;;21.20;99.90;;;;;;4871787;29;20460;-90
2023/08/29 10:11:07;;;;;;;44.33;39.80;;;21.20;99.90;;;;;;4868918;29;20399;-88
2023/08/29 10:13:34;;;;;;;44.17;39.53;;;21.10;99.90;;;;;;4871781;29;20413;-88
2023/08/29 10:16:01;;;;;;;41.37;37.00;;;20.60;99.90;;;;;;4866248;29;20403;-88
2023/08/29 10:18:30;;;;;;;42.97;38.47;;;20.70;99.90;;;;;;4867832;29;20420;-89
2023/08/29 10:20:59;;;;;;;39.83;35.23;;;21.00;99.90;;;;;;4877649;29;20932;-87
2023/08/29 10:23:26;;;;;;;37.80;33.37;;;21.10;99.90;;;;;;4845325;29;20403;-88
2023/08/29 10:25:52;;;;;;;38.97;34.80;;;20.80;99.90;;;;;;4860623;29;20428;-87
2023/08/29 10:28:19;;;;;;;39.43;35.43;;;20.90;99.90;;;;;;4859513;29;21004;-87
2023/08/29 10:30:51;;;;;;;38.63;34.50;;;20.50;99.90;;;;;;4861388;29;20196;-88
2023/08/29 10:33:19;;;;;;;41.00;36.80;;;20.80;99.90;;;;;;4860184;29;20403;-88
2023/08/29 10:35:47;;;;;;;36.37;32.57;;;21.10;99.90;;;;;;4860064;29;20435;-89
2023/08/29 10:38:14;;;;;;;37.07;33.27;;;20.90;99.90;;;;;;4862120;29;20505;-87
2023/08/29 10:40:43;;;;;;;39.30;34.83;;;21.00;99.90;;;;;;4860823;29;20407;-87
2023/08/29 10:43:20;;;;;;;39.13;33.60;;;21.00;99.90;;;;;;4862380;29;20428;-87
2023/08/29 10:45:51;;;;;;;35.30;31.77;;;20.80;99.90;;;;;;4865380;29;20411;-87
2023/08/29 10:48:19;;;;;;;34.80;31.00;;;20.40;99.90;;;;;;4861293;29;20503;-87
2023/08/29 10:50:47;;;;;;;35.83;31.60;;;20.30;99.90;;;;;;4862280;29;20387;-89
2023/08/29 10:53:22;;;;;;;39.30;32.97;;;20.40;99.90;;;;;;4860472;29;20481;-87
2023/08/29 10:56:02;;;;;;;36.77;32.80;;;20.30;99.90;;;;;;4860495;29;20433;-88
2023/08/29 10:58:35;;;;;;;34.90;29.97;;;20.50;99.90;;;;;;4861339;29;20466;-88
2023/08/29 11:01:02;;;;;;;34.33;30.30;;;20.50;99.90;;;;;;4860078;29;20858;-88
2023/08/29 11:03:45;;;;;;;41.47;33.73;;;20.70;99.90;;;;;;4844767;29;20404;-87
2023/08/29 11:06:11;;;;;;;36.60;32.53;;;21.00;99.90;;;;;;4861602;29;20547;-88
2023/08/29 11:08:36;;;;;;;34.33;30.83;;;21.00;99.90;;;;;;4844876;29;21096;-87
2023/08/29 11:11:16;;;;;;;32.57;29.20;;;20.90;99.90;;;;;;4869922;29;20176;-88
2023/08/29 11:13:56;;;;;;;35.97;31.97;;;20.90;99.90;;;;;;4917645;24;20240;-88
2023/08/29 11:16:22;;;;;;;33.07;29.60;;;21.10;99.90;;;;;;4842451;29;20409;-87
2023/08/29 11:19:18;;;;;;;29.13;26.03;;;21.20;99.90;;;;;;4843529;29;20770;-87
2023/08/29 11:21:45;;;;;;;27.20;24.50;;;21.20;99.90;;;;;;4842186;29;20483;-87
2023/08/29 11:24:11;;;;;;;25.20;22.80;;;21.40;99.90;;;;;;4842037;29;20436;-87
2023/08/29 11:26:41;;;;;;;25.10;22.47;;;21.60;99.90;;;;;;4841964;29;20795;-87
2023/08/29 11:29:07;;;;;;;26.33;23.53;;;21.20;99.90;;;;;;4842963;29;20185;-87
2023/08/29 11:31:43;;;;;;;26.93;24.20;;;21.60;99.90;;;;;;4843020;29;20450;-86
2023/08/29 11:34:21;;;;;;;26.10;23.70;;;21.80;99.90;;;;;;4841402;29;20432;-87
2023/08/29 11:36:48;;;;;;;23.57;21.20;;;21.70;99.90;;;;;;4842922;29;20399;-89
2023/08/29 11:39:14;;;;;;;20.80;18.40;;;21.40;99.90;;;;;;4842987;29;20384;-86
2023/08/29 11:41:43;;;;;;;22.07;19.90;;;21.50;99.90;;;;;;4842884;29;20418;-87
2023/08/29 11:44:09;;;;;;;13.93;11.53;;;21.50;99.90;;;;;;4843468;29;20501;-87
2023/08/29 11:46:34;;;;;;;15.13;13.53;;;21.80;99.90;;;;;;4841439;29;20426;-87
2023/08/29 11:49:00;;;;;;;11.63;10.50;;;22.10;99.90;;;;;;4842747;29;20462;-88
2023/08/29 11:51:26;;;;;;;11.87;8.53;;;21.90;99.90;;;;;;4843119;29;20185;-88
2023/08/29 11:53:52;;;;;;;8.57;7.60;;;21.90;99.90;;;;;;4842390;29;20180;-87
2023/08/29 11:56:18;;;;;;;7.70;7.00;;;21.70;99.90;;;;;;4842568;29;20425;-87
2023/08/29 11:58:43;;;;;;;8.70;7.30;;;21.70;99.90;;;;;;4841336;29;20218;-87
2023/08/29 12:01:09;;;;;;;6.97;6.30;;;21.80;99.90;;;;;;4826343;29;20200;-88
2023/08/29 12:03:36;;;;;;;7.23;6.40;;;21.80;99.90;;;;;;4842929;29;20213;-86
2023/08/29 12:06:04;;;;;;;9.23;8.27;;;21.80;99.90;;;;;;4842414;29;20233;-87
2023/08/29 12:08:41;;;;;;;9.50;8.60;;;21.90;99.90;;;;;;4841335;29;20542;-86
2023/08/29 12:11:13;;;;;;;8.03;7.23;;;21.90;99.90;;;;;;4841135;29;21016;-87
2023/08/29 12:13:40;;;;;;;6.03;5.43;;;21.90;99.90;;;;;;4826094;29;20577;-86
2023/08/29 12:16:16;;;;;;;4.63;4.23;;;21.90;99.90;;;;;;4842600;29;20396;-86
2023/08/29 12:18:42;;;;;;;8.07;3.90;;;22.00;99.90;;;;;;4826068;29;20445;-86
2023/08/29 12:21:15;;;;;;;3.60;3.30;;;22.00;99.90;;;;;;4842163;29;20477;-87
2023/08/29 12:23:42;;;;;;;6.90;6.00;;;22.00;99.90;;;;;;4842535;29;20418;-87
2023/08/29 12:26:08;;;;;;;5.40;4.90;;;21.80;99.90;;;;;;4849591;29;20393;-88
2023/08/29 12:28:34;;;;;;;4.43;3.77;;;21.90;99.90;;;;;;4847101;29;20848;-89